Time;durP1;ratioP1;P1;durP2;ratioP2;P2;SDS_P1;SDS_P2;PMS_P1;PMS_P2;Temp;Humidity;BMP_temperature;BMP_pressure;BME280_temperature;BME280_humidity;BME280_pressure;Samples;Min_cycle;Max_cycle;Signal;HPM_P1;HPM_P2
2022/05/08 00:01:35;;;;;;;15.30;14.20;;;13.20;99.90;;;;;;6142469;23;20232;-83
2022/05/08 00:04:04;;;;;;;16.30;14.85;;;13.10;99.90;;;;;;6145214;23;20194;-83
2022/05/08 00:06:31;;;;;;;15.85;14.52;;;13.10;99.90;;;;;;6119888;23;20198;-84
2022/05/08 00:08:58;;;;;;;15.18;13.98;;;13.10;99.90;;;;;;6132469;23;20304;-84
2022/05/08 00:11:25;;;;;;;14.55;13.50;;;13.00;99.90;;;;;;6131575;23;20269;-83
2022/05/08 00:13:52;;;;;;;16.30;14.90;;;13.10;99.90;;;;;;6135765;23;20199;-83
2022/05/08 00:16:19;;;;;;;14.15;13.07;;;13.00;99.90;;;;;;6156049;23;20221;-83
2022/05/08 00:18:46;;;;;;;16.30;14.80;;;13.00;99.90;;;;;;6145607;23;20749;-84
2022/05/08 00:21:15;;;;;;;15.10;13.85;;;13.00;99.90;;;;;;6147133;23;21204;-83
2022/05/08 00:23:42;;;;;;;14.45;13.50;;;13.00;99.90;;;;;;6138071;23;20262;-83
2022/05/08 00:26:08;;;;;;;15.23;14.05;;;13.10;99.90;;;;;;6167611;23;20191;-83
2022/05/08 00:28:36;;;;;;;14.55;13.43;;;13.00;99.90;;;;;;6159440;23;20242;-83
2022/05/08 00:31:03;;;;;;;15.43;14.20;;;13.00;99.90;;;;;;6165973;23;20216;-83
2022/05/08 00:33:31;;;;;;;16.67;15.27;;;13.00;99.90;;;;;;6145575;23;20191;-83
2022/05/08 00:35:59;;;;;;;15.80;14.70;;;12.90;99.90;;;;;;6156759;23;20273;-83
2022/05/08 00:38:27;;;;;;;16.42;15.13;;;12.90;99.90;;;;;;6147369;23;20265;-83
2022/05/08 00:40:54;;;;;;;15.80;14.70;;;12.90;99.90;;;;;;6139747;23;20557;-83
2022/05/08 00:43:28;;;;;;;16.60;15.40;;;12.80;99.90;;;;;;6138837;23;20194;-83
2022/05/08 00:45:55;;;;;;;16.90;15.60;;;12.70;99.90;;;;;;6143077;23;20251;-83
2022/05/08 00:48:23;;;;;;;16.83;15.57;;;12.60;99.90;;;;;;6153837;23;20492;-83
2022/05/08 00:50:51;;;;;;;17.73;16.27;;;12.60;99.90;;;;;;6152350;23;20214;-83
2022/05/08 00:53:18;;;;;;;17.23;15.95;;;12.50;99.90;;;;;;6145162;23;20191;-83
2022/05/08 00:55:47;;;;;;;18.35;17.02;;;12.50;99.90;;;;;;6134297;23;20721;-83
2022/05/08 00:58:16;;;;;;;18.48;17.08;;;12.40;99.90;;;;;;6137639;23;20262;-83
2022/05/08 01:00:43;;;;;;;18.38;17.00;;;12.30;99.90;;;;;;6146163;23;20207;-83
2022/05/08 01:03:12;;;;;;;18.67;17.15;;;12.20;99.90;;;;;;6145874;23;20218;-83
2022/05/08 01:05:41;;;;;;;19.85;18.27;;;12.10;99.90;;;;;;6144307;23;20198;-83
2022/05/08 01:08:10;;;;;;;19.77;18.15;;;12.00;99.90;;;;;;6145979;23;20264;-83
2022/05/08 01:10:38;;;;;;;20.48;18.70;;;11.90;99.90;;;;;;6120478;23;20286;-83
2022/05/08 01:13:07;;;;;;;20.20;18.58;;;11.90;99.90;;;;;;6142082;23;20191;-83
2022/05/08 01:15:42;;;;;;;21.13;19.13;;;11.80;99.90;;;;;;6136394;23;20265;-83
2022/05/08 01:18:11;;;;;;;21.20;19.60;;;11.70;99.90;;;;;;6144456;23;20213;-82
2022/05/08 01:20:40;;;;;;;20.67;18.98;;;11.50;99.90;;;;;;6133848;23;20214;-83
2022/05/08 01:23:09;;;;;;;19.92;18.23;;;11.40;99.90;;;;;;6134150;23;20222;-83
2022/05/08 01:25:47;;;;;;;22.88;21.00;;;11.30;99.90;;;;;;6140234;23;20265;-83
2022/05/08 01:28:16;;;;;;;21.58;19.67;;;11.30;99.90;;;;;;6143970;23;20232;-83
2022/05/08 01:30:46;;;;;;;20.77;19.00;;;11.20;99.90;;;;;;6137541;23;20210;-83
2022/05/08 01:33:13;;;;;;;20.08;18.48;;;11.20;99.90;;;;;;6141025;23;20226;-83
2022/05/08 01:35:40;;;;;;;19.58;18.05;;;11.20;99.90;;;;;;6138480;23;20265;-83
2022/05/08 01:38:13;;;;;;;20.65;19.05;;;11.20;99.90;;;;;;6143253;23;20226;-83
2022/05/08 01:40:40;;;;;;;21.40;19.52;;;11.20;99.90;;;;;;6141824;23;20241;-83
2022/05/08 01:43:07;;;;;;;19.17;17.70;;;11.20;99.90;;;;;;6146687;23;20194;-83
2022/05/08 01:45:35;;;;;;;21.88;20.08;;;11.30;99.90;;;;;;6135009;23;20722;-83
2022/05/08 01:50:48;;;;;;;21.38;19.55;;;11.20;99.90;;;;;;6144847;23;20296;-83
2022/05/08 01:53:16;;;;;;;22.02;20.23;;;11.30;99.90;;;;;;6140653;23;20538;-83
2022/05/08 01:55:44;;;;;;;21.52;19.83;;;11.20;99.90;;;;;;6146513;23;20204;-83
2022/05/08 01:58:11;;;;;;;22.60;20.63;;;11.20;99.90;;;;;;6140485;23;20274;-83
2022/05/08 02:00:39;;;;;;;22.10;20.10;;;11.10;99.90;;;;;;6135135;23;20213;-83
2022/05/08 02:03:06;;;;;;;22.00;20.25;;;11.00;99.90;;;;;;6142209;23;20191;-83
2022/05/08 02:05:33;;;;;;;24.60;22.70;;;11.00;99.90;;;;;;6142502;23;20269;-83
2022/05/08 02:08:01;;;;;;;23.48;21.52;;;11.00;99.90;;;;;;6137007;23;20233;-83
2022/05/08 02:10:30;;;;;;;22.92;21.13;;;11.00;99.90;;;;;;6143006;23;20212;-83
2022/05/08 02:12:57;;;;;;;23.83;21.90;;;11.00;99.90;;;;;;6116837;23;20198;-83
2022/05/08 02:15:24;;;;;;;22.92;20.95;;;11.00;99.90;;;;;;6169894;23;20189;-83
2022/05/08 02:17:52;;;;;;;23.55;21.75;;;11.00;99.90;;;;;;6173415;23;20198;-83
2022/05/08 02:20:19;;;;;;;23.50;21.50;;;11.10;99.90;;;;;;6160859;23;20333;-83
2022/05/08 02:22:45;;;;;;;22.27;20.38;;;11.10;99.90;;;;;;6150369;23;20210;-82
2022/05/08 02:25:12;;;;;;;24.70;22.50;;;11.10;99.90;;;;;;6146190;23;20737;-83
2022/05/08 02:27:44;;;;;;;22.23;20.52;;;11.20;99.90;;;;;;6143271;23;20197;-83
2022/05/08 02:30:12;;;;;;;22.05;20.35;;;11.20;99.90;;;;;;6127810;23;20231;-83
2022/05/08 02:32:40;;;;;;;22.35;20.45;;;11.20;99.90;;;;;;6141018;23;20543;-83
2022/05/08 02:35:09;;;;;;;22.02;20.33;;;11.20;99.90;;;;;;6142470;23;20187;-83
2022/05/08 02:37:37;;;;;;;21.88;20.10;;;11.30;99.90;;;;;;6139916;23;20203;-83
2022/05/08 02:40:06;;;;;;;21.92;20.08;;;11.30;99.90;;;;;;6135761;23;20277;-83
2022/05/08 02:42:33;;;;;;;20.90;19.30;;;11.40;99.90;;;;;;6141983;23;20191;-83
2022/05/08 02:45:01;;;;;;;21.23;19.73;;;11.40;99.90;;;;;;6135830;23;20191;-83
2022/05/08 02:47:28;;;;;;;19.88;18.27;;;11.40;99.90;;;;;;6142451;23;20248;-83
2022/05/08 02:49:55;;;;;;;20.42;18.83;;;11.50;99.90;;;;;;6141143;23;20246;-83
2022/05/08 02:52:22;;;;;;;20.92;19.27;;;11.50;99.90;;;;;;6137518;23;20586;-83
2022/05/08 02:54:49;;;;;;;19.98;18.38;;;11.50;99.90;;;;;;6146800;23;20263;-83
2022/05/08 03:00:08;;;;;;;20.83;19.13;;;11.50;99.90;;;;;;6096772;23;20737;-83
2022/05/08 03:02:36;;;;;;;21.13;19.42;;;11.50;99.90;;;;;;6142469;23;20656;-83
2022/05/08 03:05:04;;;;;;;21.55;19.90;;;11.50;99.90;;;;;;6137517;23;20687;-83
2022/05/08 03:07:31;;;;;;;21.05;19.45;;;11.50;99.90;;;;;;6136607;23;20198;-83
2022/05/08 03:09:58;;;;;;;21.00;19.10;;;11.50;99.90;;;;;;6145441;23;20214;-83
2022/05/08 03:12:25;;;;;;;20.67;19.08;;;11.50;99.90;;;;;;6140070;23;20688;-83
2022/05/08 03:14:52;;;;;;;20.25;18.45;;;11.40;99.90;;;;;;6138047;23;20278;-84
2022/05/08 03:17:21;;;;;;;20.00;18.30;;;11.40;99.90;;;;;;6110562;23;20199;-83
2022/05/08 03:19:47;;;;;;;19.48;17.88;;;11.40;99.90;;;;;;6142974;23;20579;-83
2022/05/08 03:22:15;;;;;;;19.50;18.00;;;11.40;99.90;;;;;;6144489;23;20225;-83
2022/05/08 03:24:41;;;;;;;18.70;17.20;;;11.40;99.90;;;;;;6145345;23;20196;-83
2022/05/08 03:27:08;;;;;;;19.20;17.73;;;11.40;99.90;;;;;;6144788;23;20214;-83
2022/05/08 03:29:35;;;;;;;19.13;17.63;;;11.40;99.90;;;;;;6133133;23;20223;-83
2022/05/08 03:32:03;;;;;;;17.90;16.40;;;11.30;99.90;;;;;;6135990;23;20242;-83
2022/05/08 03:34:32;;;;;;;19.40;17.90;;;11.30;99.90;;;;;;6141789;23;20194;-83
2022/05/08 03:36:59;;;;;;;19.58;17.98;;;11.30;99.90;;;;;;6131487;23;20201;-83
2022/05/08 03:39:26;;;;;;;19.67;17.90;;;11.30;99.90;;;;;;6130073;23;20379;-83
2022/05/08 03:41:53;;;;;;;20.33;18.70;;;11.30;99.90;;;;;;6144824;23;20557;-83
2022/05/08 03:44:20;;;;;;;19.75;18.25;;;11.30;99.90;;;;;;6146444;23;20270;-83
2022/05/08 03:46:47;;;;;;;20.20;18.60;;;11.30;99.90;;;;;;6142757;23;20201;-83
2022/05/08 03:49:14;;;;;;;19.10;17.67;;;11.20;99.90;;;;;;6151439;23;20210;-83
2022/05/08 03:51:42;;;;;;;19.95;18.42;;;11.20;99.90;;;;;;6151210;23;20217;-83
2022/05/08 03:54:09;;;;;;;22.20;20.50;;;11.20;99.90;;;;;;6144185;23;20218;-83
2022/05/08 03:56:36;;;;;;;20.40;18.83;;;11.20;99.90;;;;;;6142295;23;20191;-83
2022/05/08 03:59:03;;;;;;;23.48;21.65;;;11.10;99.90;;;;;;6137474;23;20302;-83
2022/05/08 04:01:30;;;;;;;24.08;22.17;;;11.10;99.90;;;;;;6139253;23;20613;-83
2022/05/08 04:03:59;;;;;;;24.70;22.70;;;11.00;99.90;;;;;;6143401;23;20194;-83
2022/05/08 04:06:26;;;;;;;24.17;22.17;;;10.90;99.90;;;;;;6144440;23;20187;-83
2022/05/08 04:08:54;;;;;;;24.50;22.48;;;10.70;99.90;;;;;;6135941;23;20275;-83
2022/05/08 04:11:21;;;;;;;24.00;21.70;;;10.60;99.90;;;;;;6140129;23;20569;-83
2022/05/08 04:13:48;;;;;;;23.48;21.33;;;10.50;99.90;;;;;;6140644;23;20265;-83
2022/05/08 04:16:18;;;;;;;23.02;21.13;;;10.50;99.90;;;;;;6137361;23;20186;-84
2022/05/08 04:18:46;;;;;;;24.52;22.52;;;10.50;99.90;;;;;;6135210;23;21168;-83
2022/05/08 04:21:13;;;;;;;25.67;23.50;;;10.50;99.90;;;;;;6138626;23;20679;-84
2022/05/08 04:26:27;;;;;;;25.70;23.55;;;10.60;99.90;;;;;;6137495;23;20229;-83
2022/05/08 04:28:53;;;;;;;25.30;23.30;;;10.50;99.90;;;;;;6143939;23;20600;-83
2022/05/08 04:31:20;;;;;;;24.35;22.35;;;10.50;99.90;;;;;;6146380;23;20285;-83
2022/05/08 04:33:47;;;;;;;24.60;22.60;;;10.60;99.90;;;;;;6140935;23;20220;-83
2022/05/08 04:36:14;;;;;;;23.65;21.60;;;10.60;99.90;;;;;;6137747;23;20273;-83
2022/05/08 04:38:41;;;;;;;24.33;22.38;;;10.60;99.90;;;;;;6137546;23;20676;-83
2022/05/08 04:41:08;;;;;;;24.40;22.23;;;10.60;99.90;;;;;;6137847;23;20289;-83
2022/05/08 04:43:37;;;;;;;23.50;21.40;;;10.70;99.90;;;;;;6144562;23;20187;-83
2022/05/08 04:46:04;;;;;;;22.42;20.73;;;10.70;99.90;;;;;;6141214;23;20270;-83
2022/05/08 04:48:31;;;;;;;23.15;21.25;;;10.80;99.90;;;;;;6142412;23;20193;-84
2022/05/08 04:51:00;;;;;;;23.92;21.92;;;10.90;99.90;;;;;;6145018;23;20317;-83
2022/05/08 04:53:27;;;;;;;23.20;21.30;;;11.00;99.90;;;;;;6146987;23;20194;-83
2022/05/08 04:55:54;;;;;;;23.75;21.85;;;11.00;99.90;;;;;;6144627;23;20728;-83
2022/05/08 04:58:21;;;;;;;25.38;23.27;;;11.10;99.90;;;;;;6145544;23;20266;-83
2022/05/08 05:00:49;;;;;;;23.35;21.55;;;11.20;99.90;;;;;;6146959;23;20214;-83
2022/05/08 05:03:16;;;;;;;23.35;21.48;;;11.20;99.90;;;;;;6144169;23;20228;-83
2022/05/08 05:05:43;;;;;;;24.65;22.65;;;11.30;99.90;;;;;;6146772;23;20206;-83
2022/05/08 05:08:11;;;;;;;23.65;21.75;;;11.40;99.90;;;;;;6147979;23;20198;-83
2022/05/08 05:10:38;;;;;;;25.17;22.98;;;11.40;99.90;;;;;;6172545;23;20214;-83
2022/05/08 05:13:05;;;;;;;24.90;22.90;;;11.50;99.90;;;;;;6167385;23;20190;-83
2022/05/08 05:15:32;;;;;;;25.52;23.33;;;11.50;99.90;;;;;;6146850;23;20265;-84
2022/05/08 05:18:02;;;;;;;23.60;21.63;;;11.30;99.90;;;;;;6143953;23;20273;-82
2022/05/08 05:20:29;;;;;;;25.58;23.48;;;11.20;99.90;;;;;;6154643;23;20257;-83
2022/05/08 05:23:03;;;;;;;25.65;23.65;;;11.20;99.90;;;;;;6150425;23;20266;-83
2022/05/08 05:25:30;;;;;;;24.38;22.38;;;11.20;99.90;;;;;;6146547;23;20187;-82
2022/05/08 05:27:57;;;;;;;24.27;22.35;;;11.20;99.90;;;;;;6145555;23;20637;-82
2022/05/08 05:30:24;;;;;;;24.58;22.58;;;11.10;99.90;;;;;;6141121;23;20226;-83
2022/05/08 05:32:51;;;;;;;25.55;23.30;;;11.20;99.90;;;;;;6148898;23;20221;-83
2022/05/08 05:35:19;;;;;;;25.05;22.95;;;11.10;99.90;;;;;;6145749;23;20221;-83
2022/05/08 05:37:46;;;;;;;25.45;23.50;;;11.00;99.90;;;;;;6134617;23;20752;-83
2022/05/08 05:40:14;;;;;;;24.70;22.60;;;11.00;99.90;;;;;;6129401;23;20249;-83
2022/05/08 05:42:40;;;;;;;27.42;25.13;;;11.00;99.90;;;;;;6145630;23;20265;-84
2022/05/08 05:45:08;;;;;;;26.00;23.80;;;11.10;99.90;;;;;;6150198;23;20262;-83
2022/05/08 05:47:49;;;;;;;25.05;22.92;;;11.20;99.90;;;;;;6146175;23;20182;-83
2022/05/08 05:50:19;;;;;;;24.88;22.80;;;11.30;99.90;;;;;;6135997;23;20211;-83
2022/05/08 05:52:46;;;;;;;24.92;22.88;;;11.40;99.90;;;;;;6145907;23;20209;-84
2022/05/08 05:55:13;;;;;;;24.25;22.27;;;11.60;99.90;;;;;;6129586;23;20203;-83
2022/05/08 05:57:40;;;;;;;24.83;22.83;;;11.60;99.90;;;;;;6145013;23;20194;-83
2022/05/08 06:00:10;;;;;;;22.60;20.80;;;11.70;99.90;;;;;;6147666;23;20216;-83
2022/05/08 06:02:37;;;;;;;23.23;21.42;;;11.70;99.90;;;;;;6142617;23;20233;-83
2022/05/08 06:05:06;;;;;;;21.35;19.65;;;11.70;99.90;;;;;;6139422;23;20207;-83
2022/05/08 06:07:34;;;;;;;22.00;20.30;;;11.70;99.90;;;;;;6140332;23;20189;-83
2022/05/08 06:10:01;;;;;;;21.88;20.05;;;11.80;99.90;;;;;;6145227;23;20882;-83
2022/05/08 06:12:28;;;;;;;20.95;19.35;;;11.80;99.90;;;;;;6110193;23;20225;-83
2022/05/08 06:14:55;;;;;;;22.40;20.60;;;11.80;99.90;;;;;;6128678;23;20193;-80
2022/05/08 06:17:22;;;;;;;21.55;19.65;;;11.90;99.90;;;;;;6127389;23;20222;-84
2022/05/08 06:19:49;;;;;;;23.48;21.67;;;11.90;99.90;;;;;;6137699;23;20211;-84
2022/05/08 06:22:16;;;;;;;24.00;22.10;;;11.80;99.90;;;;;;6153827;23;20269;-83
2022/05/08 06:24:45;;;;;;;22.33;20.58;;;11.70;99.90;;;;;;6167813;23;20201;-83
2022/05/08 06:27:11;;;;;;;22.15;20.15;;;11.60;99.90;;;;;;6165383;23;20198;-82
2022/05/08 06:29:41;;;;;;;22.25;20.55;;;11.60;99.90;;;;;;6157442;23;20225;-83
2022/05/08 06:32:09;;;;;;;22.80;21.00;;;11.60;99.90;;;;;;6150014;23;20202;-84
2022/05/08 06:34:36;;;;;;;21.52;19.83;;;11.60;99.90;;;;;;6157053;23;20191;-83
2022/05/08 06:37:03;;;;;;;20.45;18.77;;;11.60;99.90;;;;;;6166107;23;20196;-83
2022/05/08 06:39:30;;;;;;;20.45;18.75;;;11.70;99.90;;;;;;6161628;23;20229;-82
2022/05/08 06:42:07;;;;;;;21.33;19.63;;;11.80;99.90;;;;;;6168575;23;20237;-82
2022/05/08 06:44:35;;;;;;;20.63;19.02;;;12.00;99.90;;;;;;6130623;23;20277;-83
2022/05/08 06:47:04;;;;;;;21.23;19.50;;;12.10;99.90;;;;;;6151643;23;20194;-83
2022/05/08 06:49:31;;;;;;;20.40;18.83;;;12.30;99.90;;;;;;6155418;23;20254;-83
2022/05/08 06:52:07;;;;;;;21.80;20.00;;;12.40;99.90;;;;;;6153581;23;20566;-84
2022/05/08 06:54:34;;;;;;;21.48;19.88;;;12.40;99.90;;;;;;6149245;23;20656;-83
2022/05/08 06:57:01;;;;;;;21.65;20.02;;;12.40;99.90;;;;;;6146645;23;20191;-85
2022/05/08 07:02:15;;;;;;;22.67;20.90;;;12.40;99.90;;;;;;6140087;23;20633;-84
2022/05/08 07:04:42;;;;;;;22.40;20.70;;;12.40;99.90;;;;;;6145964;23;20222;-80
2022/05/08 07:07:09;;;;;;;18.08;16.38;;;12.50;99.90;;;;;;6134290;23;20191;-85
2022/05/08 07:09:36;;;;;;;16.33;14.93;;;12.60;99.90;;;;;;6161630;23;20248;-83
2022/05/08 07:12:03;;;;;;;19.48;17.98;;;12.90;99.90;;;;;;6163525;23;20240;-84
2022/05/08 07:14:31;;;;;;;19.23;17.80;;;13.20;99.90;;;;;;6148218;23;20235;-86
2022/05/08 07:17:00;;;;;;;20.98;19.40;;;13.50;99.90;;;;;;6148450;23;20302;-85
2022/05/08 07:19:27;;;;;;;19.85;18.38;;;13.80;99.90;;;;;;6150753;23;20207;-91
2022/05/08 07:21:56;;;;;;;17.60;16.30;;;13.90;99.90;;;;;;6169980;23;20197;-89
2022/05/08 07:24:23;;;;;;;18.73;17.33;;;14.00;99.90;;;;;;6155491;23;20978;-82
2022/05/08 07:26:50;;;;;;;19.77;17.98;;;14.20;99.90;;;;;;6134650;23;20473;-82
2022/05/08 07:29:17;;;;;;;17.30;15.97;;;14.40;99.90;;;;;;6153631;23;20210;-84
2022/05/08 07:31:45;;;;;;;19.60;18.10;;;14.60;99.90;;;;;;6151854;23;20496;-82
2022/05/08 07:36:58;;;;;;;17.57;16.30;;;15.10;99.90;;;;;;6143806;23;20518;-91
2022/05/08 07:39:37;;;;;;;15.67;14.57;;;15.30;99.90;;;;;;6147685;23;20547;-90
2022/05/08 07:42:04;;;;;;;15.83;14.73;;;15.70;99.90;;;;;;6150104;23;20520;-94
2022/05/08 07:44:31;;;;;;;15.73;14.63;;;15.90;99.90;;;;;;6149986;23;20454;-89
2022/05/08 07:47:02;;;;;;;15.27;14.17;;;16.10;99.90;;;;;;6144323;23;20508;-90
2022/05/08 07:49:29;;;;;;;16.97;15.70;;;16.20;99.90;;;;;;6141956;23;20460;-90
2022/05/08 07:51:56;;;;;;;15.70;14.50;;;16.10;99.90;;;;;;6147432;23;20510;-91
2022/05/08 07:54:25;;;;;;;16.33;15.23;;;16.20;99.90;;;;;;6149683;23;20440;-89
2022/05/08 07:56:53;;;;;;;17.40;16.17;;;16.20;99.90;;;;;;6148939;23;20435;-89
2022/05/08 07:59:20;;;;;;;16.73;15.63;;;16.30;99.90;;;;;;6141149;23;20453;-90
2022/05/08 08:01:47;;;;;;;17.00;15.80;;;16.30;99.90;;;;;;6154164;23;20822;-89
2022/05/08 08:04:19;;;;;;;15.40;14.20;;;16.40;99.90;;;;;;6152692;23;20420;-90
2022/05/08 08:06:48;;;;;;;16.50;15.30;;;16.50;99.90;;;;;;6176721;23;20435;-89
2022/05/08 08:09:15;;;;;;;16.90;15.67;;;16.80;99.90;;;;;;6149845;23;20453;-89
2022/05/08 08:11:42;;;;;;;14.20;13.30;;;17.00;99.90;;;;;;6147748;23;20555;-89
2022/05/08 08:14:10;;;;;;;13.30;12.37;;;17.50;99.90;;;;;;6149042;23;20429;-87
2022/05/08 08:16:37;;;;;;;14.50;13.50;;;17.90;99.90;;;;;;6140324;23;20440;-83
2022/05/08 08:19:04;;;;;;;15.27;14.17;;;18.30;99.90;;;;;;6139826;23;20462;-84
2022/05/08 08:21:33;;;;;;;12.97;12.07;;;18.50;99.90;;;;;;6150480;23;20505;-88
2022/05/08 08:24:01;;;;;;;12.17;11.30;;;18.80;99.90;;;;;;6144342;23;20506;-88
2022/05/08 08:26:28;;;;;;;11.20;10.40;;;19.10;99.90;;;;;;6149345;23;20506;-88
2022/05/08 08:28:55;;;;;;;13.07;12.07;;;19.60;99.90;;;;;;6121595;23;20951;-88
2022/05/08 08:31:22;;;;;;;11.03;10.30;;;19.90;99.90;;;;;;6131505;23;20506;-88
2022/05/08 08:33:49;;;;;;;10.03;9.33;;;20.30;99.90;;;;;;6140822;23;20502;-88
2022/05/08 08:36:16;;;;;;;10.33;9.63;;;20.60;99.90;;;;;;6149496;23;20444;-88
2022/05/08 08:38:44;;;;;;;10.53;9.77;;;20.80;99.90;;;;;;6147432;23;20451;-88
2022/05/08 08:41:15;;;;;;;9.27;8.67;;;20.90;99.90;;;;;;6146098;23;20548;-89
2022/05/08 08:49:21;;;;;;;12.73;11.83;;;21.40;99.90;;;;;;6130089;23;20854;-88
2022/05/08 08:51:49;;;;;;;11.67;10.67;;;21.30;99.90;;;;;;6125926;23;20476;-88
2022/05/08 08:54:18;;;;;;;11.60;10.67;;;21.60;99.90;;;;;;6144595;23;20447;-88
2022/05/08 08:56:45;;;;;;;12.63;11.73;;;21.70;99.90;;;;;;6148775;23;20448;-88
2022/05/08 08:59:12;;;;;;;12.03;11.13;;;21.90;99.90;;;;;;6148269;23;20459;-88
2022/05/08 09:01:43;;;;;;;10.20;9.60;;;22.00;99.90;;;;;;6149904;23;20500;-88
2022/05/08 09:04:10;;;;;;;11.20;10.40;;;22.10;99.90;;;;;;6143893;23;20456;-88
2022/05/08 09:06:41;;;;;;;10.47;9.63;;;22.20;99.90;;;;;;6146401;23;20522;-88
2022/05/08 09:09:27;;;;;;;9.80;9.10;;;22.30;99.90;;;;;;6140086;23;20882;-87
2022/05/08 09:11:55;;;;;;;10.50;9.80;;;22.40;99.90;;;;;;6142232;23;20551;-88
2022/05/08 09:14:31;;;;;;;9.93;9.27;;;22.20;99.90;;;;;;6145722;23;20447;-88
2022/05/08 09:16:58;;;;;;;9.40;8.70;;;22.40;99.90;;;;;;6147524;23;20475;-89
2022/05/08 09:19:37;;;;;;;9.90;9.30;;;22.60;99.90;;;;;;6149627;23;20465;-87
2022/05/08 09:22:05;;;;;;;10.00;9.40;;;22.80;99.90;;;;;;6147979;23;20458;-88
2022/05/08 09:24:35;;;;;;;9.77;9.17;;;23.20;99.90;;;;;;6141171;23;20922;-89
2022/05/08 09:27:18;;;;;;;10.77;9.97;;;23.40;99.90;;;;;;6130005;23;20456;-88
2022/05/08 09:29:46;;;;;;;10.90;10.10;;;23.60;99.90;;;;;;6140878;23;20460;-87
2022/05/08 09:32:35;;;;;;;9.77;9.17;;;23.50;99.90;;;;;;6143029;23;20801;-89
2022/05/08 09:35:03;;;;;;;10.70;10.00;;;24.00;99.90;;;;;;6147664;23;20441;-88
2022/05/08 09:37:30;;;;;;;10.87;9.97;;;24.30;99.90;;;;;;6143646;23;20447;-88
2022/05/08 09:40:17;;;;;;;10.83;10.03;;;24.30;99.90;;;;;;6143993;23;20459;-88
2022/05/08 09:42:45;;;;;;;9.67;8.97;;;24.80;99.50;;;;;;6128244;23;20535;-88
2022/05/08 09:45:12;;;;;;;9.57;8.87;;;25.10;98.90;;;;;;6142124;23;20437;-88
2022/05/08 09:47:44;;;;;;;9.70;9.00;;;25.00;98.00;;;;;;6146358;23;20958;-88
2022/05/08 09:50:12;;;;;;;9.97;9.27;;;25.20;98.20;;;;;;6148461;23;20555;-88
2022/05/08 09:52:41;;;;;;;9.10;8.40;;;25.40;96.90;;;;;;6162212;23;20480;-88
2022/05/08 09:55:09;;;;;;;10.53;9.80;;;25.40;97.00;;;;;;6155670;23;20476;-88
2022/05/08 09:57:39;;;;;;;8.90;8.30;;;25.30;95.90;;;;;;6148263;23;20444;-87
2022/05/08 10:00:08;;;;;;;9.50;8.90;;;25.60;96.40;;;;;;6129524;23;20607;-88
2022/05/08 10:02:36;;;;;;;9.33;8.63;;;26.00;95.60;;;;;;6131653;23;20568;-88
2022/05/08 10:05:04;;;;;;;10.13;9.43;;;26.20;95.10;;;;;;6149106;23;20491;-88
2022/05/08 10:07:33;;;;;;;9.83;9.13;;;26.60;94.10;;;;;;6146637;23;20429;-88
2022/05/08 10:15:36;;;;;;;8.47;7.77;;;27.60;92.30;;;;;;6139499;23;20445;-88
2022/05/08 10:18:25;;;;;;;8.00;7.50;;;28.10;91.20;;;;;;6143470;23;20527;-88
2022/05/08 10:21:06;;;;;;;7.00;6.50;;;28.60;90.20;;;;;;6149464;23;20465;-88
2022/05/08 10:23:38;;;;;;;8.83;8.23;;;28.70;88.20;;;;;;6148581;23;20883;-88
2022/05/08 10:26:19;;;;;;;7.60;7.00;;;28.50;86.10;;;;;;6147379;23;20455;-88
2022/05/08 10:29:15;;;;;;;7.67;7.17;;;28.30;85.70;;;;;;6143803;23;20526;-88
2022/05/08 10:31:47;;;;;;;7.17;6.67;;;28.10;84.70;;;;;;6166243;23;20448;-87
2022/05/08 10:34:17;;;;;;;6.83;6.30;;;27.70;83.20;;;;;;6176989;23;20424;-87
2022/05/08 10:37:25;;;;;;;6.60;6.00;;;27.50;83.30;;;;;;6173160;23;20734;-87
2022/05/08 10:39:53;;;;;;;6.43;6.03;;;27.20;83.90;;;;;;6149871;23;20455;-87
2022/05/08 10:42:42;;;;;;;7.03;6.53;;;27.10;84.90;;;;;;6165807;23;20470;-88
2022/05/08 10:45:43;;;;;;;7.43;6.87;;;26.70;86.10;;;;;;6175697;23;20444;-88
2022/05/08 10:48:13;;;;;;;7.87;7.27;;;26.70;86.50;;;;;;6164948;23;20424;-88
2022/05/08 10:50:42;;;;;;;7.87;7.27;;;26.70;87.20;;;;;;6176336;23;20448;-88
2022/05/08 10:53:25;;;;;;;5.90;5.50;;;26.60;86.40;;;;;;6174702;23;20440;-88
2022/05/08 10:55:58;;;;;;;5.50;5.10;;;26.90;85.30;;;;;;6174855;23;20577;-88
2022/05/08 10:58:26;;;;;;;5.33;4.87;;;26.40;79.10;;;;;;6169957;23;20424;-88
2022/05/08 11:00:58;;;;;;;5.00;4.60;;;25.80;80.50;;;;;;6181565;23;20441;-88
2022/05/08 11:03:26;;;;;;;4.70;4.40;;;25.60;80.50;;;;;;6161602;23;20857;-88
2022/05/08 11:05:53;;;;;;;5.00;4.70;;;25.10;79.90;;;;;;6151531;23;20440;-88
2022/05/08 11:08:29;;;;;;;5.80;5.20;;;25.00;82.90;;;;;;6144239;23;20523;-88
2022/05/08 11:11:07;;;;;;;6.10;5.70;;;24.90;85.40;;;;;;6125147;23;20434;-88
2022/05/08 11:13:53;;;;;;;5.50;5.10;;;25.20;83.80;;;;;;6128966;23;20473;-88
2022/05/08 11:16:36;;;;;;;4.90;4.50;;;24.60;81.80;;;;;;6121427;23;20921;-88
2022/05/08 11:19:04;;;;;;;5.57;5.10;;;24.40;82.60;;;;;;6135368;23;20452;-88
2022/05/08 11:21:32;;;;;;;6.00;5.60;;;24.40;83.80;;;;;;6153751;23;20468;-88
2022/05/08 11:23:59;;;;;;;5.37;4.97;;;24.20;81.60;;;;;;6163517;23;20441;-88
2022/05/08 11:26:31;;;;;;;5.90;5.50;;;24.20;84.50;;;;;;6153629;23;20444;-88
2022/05/08 11:28:59;;;;;;;6.00;5.50;;;24.50;83.30;;;;;;6150684;23;20481;-87
2022/05/08 11:31:27;;;;;;;5.60;5.20;;;24.60;82.20;;;;;;6150176;23;20464;-88
2022/05/08 11:36:41;;;;;;;6.60;5.70;;;24.60;83.60;;;;;;6148435;23;20475;-87
2022/05/08 11:39:12;;;;;;;5.00;4.67;;;25.00;81.40;;;;;;6149851;23;20469;-87
2022/05/08 11:41:44;;;;;;;4.80;4.40;;;25.20;81.20;;;;;;6149729;23;20935;-87
2022/05/08 11:44:28;;;;;;;5.47;4.90;;;25.40;82.00;;;;;;6149353;23;20811;-88
2022/05/08 11:46:56;;;;;;;5.43;4.93;;;25.30;79.70;;;;;;6129149;23;20441;-88
2022/05/08 11:49:26;;;;;;;5.43;5.03;;;25.20;79.90;;;;;;6139051;23;20487;-88
2022/05/08 11:51:54;;;;;;;5.53;5.13;;;25.30;79.80;;;;;;6149361;23;20460;-88
2022/05/08 11:54:28;;;;;;;4.47;4.07;;;25.40;79.00;;;;;;6141113;23;20491;-88
2022/05/08 11:57:13;;;;;;;6.90;6.30;;;25.70;78.30;;;;;;6100099;23;20444;-87
2022/05/08 11:59:42;;;;;;;5.60;5.10;;;26.20;79.00;;;;;;6148112;23;20464;-87
2022/05/08 12:02:10;;;;;;;4.73;4.33;;;26.30;77.90;;;;;;6149050;23;20469;-87
2022/05/08 12:04:41;;;;;;;5.60;5.10;;;26.70;77.70;;;;;;6147721;23;20561;-88
2022/05/08 12:07:10;;;;;;;4.33;4.00;;;27.20;74.80;;;;;;6142130;23;20811;-87
2022/05/08 12:09:41;;;;;;;4.07;3.80;;;27.30;75.10;;;;;;6147329;23;20476;-88
2022/05/08 12:12:26;;;;;;;4.60;4.30;;;27.70;73.70;;;;;;6141039;23;20987;-88
2022/05/08 12:14:55;;;;;;;5.30;4.40;;;27.80;73.20;;;;;;6147557;23;20444;-88
2022/05/08 12:17:22;;;;;;;4.23;3.93;;;27.80;70.90;;;;;;6147385;23;20476;-88
2022/05/08 12:19:55;;;;;;;4.57;4.20;;;27.40;70.30;;;;;;6149293;23;20457;-88
2022/05/08 12:22:25;;;;;;;4.50;4.13;;;26.90;71.20;;;;;;6148299;23;20524;-87
2022/05/08 12:24:52;;;;;;;4.53;4.13;;;26.30;71.10;;;;;;6147233;23;20437;-87
2022/05/08 12:27:21;;;;;;;4.23;3.93;;;26.50;72.10;;;;;;6148989;23;20433;-87
2022/05/08 12:29:50;;;;;;;4.33;3.93;;;26.70;71.60;;;;;;6146707;23;20547;-87
2022/05/08 12:32:18;;;;;;;4.67;4.37;;;26.60;72.00;;;;;;6141416;23;20978;-87
2022/05/08 12:34:45;;;;;;;4.40;4.00;;;26.70;70.50;;;;;;6170773;23;20439;-87
2022/05/08 12:37:15;;;;;;;4.70;4.30;;;26.30;71.10;;;;;;6178679;23;20915;-87
2022/05/08 12:39:43;;;;;;;4.00;3.70;;;26.60;70.80;;;;;;6177612;23;20483;-87
2022/05/08 12:42:12;;;;;;;3.73;3.53;;;27.00;69.20;;;;;;6162260;23;20433;-87
2022/05/08 12:44:40;;;;;;;4.50;4.10;;;27.30;69.60;;;;;;6143494;23;20437;-87
2022/05/08 12:47:09;;;;;;;4.77;4.27;;;27.60;67.70;;;;;;6174507;23;20448;-88
2022/05/08 12:49:38;;;;;;;4.37;3.97;;;27.70;67.00;;;;;;6178816;23;20518;-88
2022/05/08 12:52:07;;;;;;;4.10;3.80;;;28.00;70.20;;;;;;6180124;23;20958;-87
2022/05/08 12:54:35;;;;;;;4.40;4.10;;;28.40;69.70;;;;;;6178178;23;20436;-87
2022/05/08 12:57:04;;;;;;;4.00;3.60;;;27.50;65.80;;;;;;6166721;23;20433;-87
2022/05/08 12:59:47;;;;;;;4.60;4.30;;;27.30;68.20;;;;;;6155342;23;20460;-87
2022/05/08 13:02:14;;;;;;;4.30;4.00;;;26.80;67.80;;;;;;6154772;23;20827;-88
2022/05/08 13:04:43;;;;;;;4.17;3.87;;;27.40;68.20;;;;;;6149149;23;20437;-87
2022/05/08 13:07:10;;;;;;;4.37;4.07;;;27.80;67.20;;;;;;6150880;23;20919;-87
2022/05/08 13:09:39;;;;;;;4.47;4.17;;;28.50;66.80;;;;;;6150029;23;20457;-87
2022/05/08 13:12:07;;;;;;;4.90;4.50;;;28.50;65.20;;;;;;6149650;23;20460;-87